createdAt,value
2019-04-26T00:01:31.674Z,2.35
2019-04-26T00:04:01.517Z,2.60
2019-04-26T00:06:31.351Z,2.80
2019-04-26T00:09:13.542Z,2.37
2019-04-26T00:12:00.999Z,2.33
2019-04-26T00:14:48.511Z,2.67
2019-04-26T00:17:22.424Z,2.50
2019-04-26T00:19:52.329Z,2.63
2019-04-26T00:22:23.076Z,2.50
2019-04-26T00:24:52.916Z,2.33
2019-04-26T00:27:22.458Z,2.30
2019-04-26T00:29:52.079Z,2.33
2019-04-26T00:32:21.957Z,2.50
2019-04-26T00:34:51.633Z,2.40
2019-04-26T00:37:21.097Z,2.50
2019-04-26T00:39:50.799Z,2.73
2019-04-26T00:42:20.655Z,2.60
2019-04-26T00:44:51.159Z,2.70
2019-04-26T00:47:23.316Z,3.00
2019-04-26T00:49:53.508Z,2.90
2019-04-26T00:52:24.484Z,2.60
2019-04-26T00:54:54.387Z,2.63
2019-04-26T00:57:24.992Z,3.83
2019-04-26T00:59:55.096Z,2.87
2019-04-26T01:02:39.163Z,2.93
2019-04-26T01:05:08.715Z,2.50
2019-04-26T01:07:38.449Z,3.27
2019-04-26T01:10:07.937Z,3.30
2019-04-26T01:12:37.579Z,3.37
2019-04-26T01:15:07.793Z,3.10
2019-04-26T01:17:37.378Z,3.97
2019-04-26T01:20:08.258Z,3.93
2019-04-26T01:22:41.703Z,3.50
2019-04-26T01:25:35.211Z,4.43
2019-04-26T01:28:07.327Z,4.97
2019-04-26T01:30:37.737Z,5.00
2019-04-26T01:33:09.027Z,5.13
2019-04-26T01:35:38.558Z,5.77
2019-04-26T01:38:10.716Z,6.30
2019-04-26T01:40:41.478Z,6.07
2019-04-26T01:43:18.119Z,6.20
2019-04-26T01:45:55.302Z,6.10
2019-04-26T01:48:45.227Z,6.70
2019-04-26T01:51:22.805Z,5.97
2019-04-26T01:53:53.392Z,6.80
2019-04-26T01:56:29.197Z,6.60
2019-04-26T01:58:59.536Z,6.90
2019-04-26T02:01:46.655Z,7.27
2019-04-26T02:04:16.189Z,7.53
2019-04-26T02:06:45.573Z,7.47
2019-04-26T02:09:15.242Z,8.35
2019-04-26T02:11:45.170Z,8.20
2019-04-26T02:14:15.671Z,8.27
2019-04-26T02:16:45.586Z,8.33
2019-04-26T02:19:15.111Z,8.47
2019-04-26T02:21:53.116Z,8.43
2019-04-26T02:24:30.123Z,9.10
2019-04-26T02:27:01.503Z,8.90
2019-04-26T02:29:31.139Z,9.43
2019-04-26T02:32:04.240Z,8.67
2019-04-26T02:34:37.690Z,8.70
2019-04-26T02:37:09.083Z,8.30
2019-04-26T02:39:41.421Z,9.00
2019-04-26T02:42:23.712Z,8.50
2019-04-26T02:45:30.331Z,8.13
2019-04-26T02:48:20.497Z,8.63
2019-04-26T02:50:56.560Z,9.20
2019-04-26T02:53:51.265Z,9.30
2019-04-26T02:56:41.950Z,8.87
2019-04-26T02:59:26.103Z,8.90
2019-04-26T03:01:58.554Z,9.47
2019-04-26T03:04:30.986Z,9.37
2019-04-26T03:07:05.306Z,9.47
2019-04-26T03:09:38.916Z,9.17
2019-04-26T03:12:12.168Z,9.97
2019-04-26T03:14:51.175Z,9.20
2019-04-26T03:17:35.809Z,9.10
2019-04-26T03:20:08.939Z,8.73
2019-04-26T03:23:00.764Z,8.90
2019-04-26T03:26:19.185Z,9.17
2019-04-26T03:29:03.150Z,8.80
2019-04-26T03:32:19.656Z,9.67
2019-04-26T03:35:22.793Z,9.23
2019-04-26T03:38:14.635Z,9.13
2019-04-26T03:41:07.576Z,8.90
2019-04-26T03:44:02.941Z,9.23
2019-04-26T03:46:48.380Z,9.80
2019-04-26T03:49:54.080Z,9.87
2019-04-26T03:52:45.602Z,9.63
2019-04-26T03:55:52.566Z,9.73
2019-04-26T03:58:30.045Z,9.63
2019-04-26T04:01:05.752Z,9.17
2019-04-26T04:03:52.435Z,9.07
2019-04-26T04:06:28.204Z,8.70
2019-04-26T04:09:05.852Z,9.50
2019-04-26T04:12:09.475Z,9.07
2019-04-26T04:15:05.662Z,9.07
2019-04-26T04:18:05.567Z,9.30
2019-04-26T04:21:01.260Z,8.50
2019-04-26T04:23:55.252Z,8.93
2019-04-26T04:26:50.003Z,7.97
2019-04-26T04:30:21.881Z,7.58
2019-04-26T04:33:29.629Z,8.20
2019-04-26T04:36:07.824Z,8.20
2019-04-26T04:39:31.542Z,7.97
2019-04-26T04:42:22.089Z,8.53
2019-04-26T04:45:41.729Z,7.47
2019-04-26T04:48:23.823Z,8.43
2019-04-26T04:51:21.912Z,7.97
2019-04-26T04:54:19.244Z,7.43
2019-04-26T04:57:19.224Z,8.87
2019-04-26T05:00:53.299Z,8.27
2019-04-26T05:03:49.234Z,8.07
2019-04-26T05:06:30.177Z,8.20
2019-04-26T05:09:12.062Z,8.07
2019-04-26T05:11:51.989Z,8.10
2019-04-26T05:14:28.772Z,9.00
2019-04-26T05:17:09.053Z,8.73
2019-04-26T05:19:45.840Z,8.70
2019-04-26T05:22:34.854Z,7.60
2019-04-26T05:25:12.621Z,8.13
2019-04-26T05:28:05.274Z,8.90
2019-04-26T05:31:15.233Z,7.97
2019-04-26T05:33:52.520Z,7.40
2019-04-26T05:36:31.320Z,8.73
2019-04-26T05:39:03.684Z,8.13
2019-04-26T05:42:07.796Z,7.97
2019-04-26T05:45:15.558Z,8.33
2019-04-26T05:48:09.305Z,8.20
2019-04-26T05:51:05.203Z,8.87
2019-04-26T05:53:59.936Z,8.20
2019-04-26T05:56:44.022Z,8.90
2019-04-26T05:59:18.827Z,8.73
2019-04-26T06:02:42.248Z,9.43
2019-04-26T06:05:27.021Z,9.23
2019-04-26T06:08:07.005Z,8.40
2019-04-26T06:10:43.414Z,8.30
2019-04-26T06:13:37.578Z,8.43
2019-04-26T06:16:30.027Z,8.80
2019-04-26T06:19:12.662Z,9.17
2019-04-26T06:21:52.382Z,8.17
2019-04-26T06:24:35.386Z,8.60
2019-04-26T06:27:53.044Z,8.77
2019-04-26T06:30:44.814Z,7.70
2019-04-26T06:33:24.841Z,7.87
2019-04-26T06:35:55.801Z,8.07
2019-04-26T06:39:04.587Z,7.73
2019-04-26T06:42:00.835Z,7.20
2019-04-26T06:44:32.746Z,7.27
2019-04-26T06:47:15.850Z,7.53
2019-04-26T06:50:08.691Z,7.87
2019-04-26T06:52:42.343Z,7.73
2019-04-26T06:55:38.241Z,7.30
2019-04-26T06:58:29.096Z,6.87
2019-04-26T07:01:26.233Z,7.57
2019-04-26T07:04:17.138Z,7.53
2019-04-26T07:06:52.662Z,6.57
2019-04-26T07:09:23.260Z,6.77
2019-04-26T07:12:21.651Z,6.90
2019-04-26T07:14:57.773Z,6.87
2019-04-26T07:17:35.430Z,6.97
2019-04-26T07:20:22.536Z,6.87
2019-04-26T07:23:18.967Z,6.23
2019-04-26T07:26:11.064Z,6.23
2019-04-26T07:28:48.312Z,6.50
2019-04-26T07:31:21.637Z,6.93
2019-04-26T07:34:14.686Z,6.50
2019-04-26T07:37:16.163Z,6.63
2019-04-26T07:40:13.960Z,6.97
2019-04-26T07:43:03.282Z,7.73
2019-04-26T07:45:51.388Z,8.60
2019-04-26T07:48:34.695Z,7.93
2019-04-26T07:51:21.128Z,8.10
2019-04-26T07:53:57.728Z,8.63
2019-04-26T07:56:42.217Z,8.87
2019-04-26T07:59:31.594Z,8.88
2019-04-26T08:02:23.312Z,8.53
2019-04-26T08:04:54.749Z,8.40
2019-04-26T08:07:25.015Z,7.77
2019-04-26T08:09:59.729Z,7.87
2019-04-26T08:12:30.862Z,8.27
2019-04-26T08:15:17.520Z,9.23
2019-04-26T08:18:09.435Z,8.90
2019-04-26T08:20:51.432Z,9.23
2019-04-26T08:23:38.475Z,8.67
2019-04-26T08:25:55.589Z,9.30
2019-04-26T08:28:26.142Z,9.53
2019-04-26T08:30:55.787Z,9.50
2019-04-26T08:33:27.826Z,9.80
2019-04-26T08:35:58.279Z,9.47
2019-04-26T08:38:28.097Z,9.40
2019-04-26T08:41:00.550Z,9.00
2019-04-26T08:44:03.708Z,8.75
2019-04-26T08:46:56.904Z,9.53
2019-04-26T08:49:50.394Z,8.90
2019-04-26T08:52:22.034Z,8.43
2019-04-26T08:54:55.967Z,8.33
2019-04-26T08:57:27.478Z,8.87
2019-04-26T08:59:57.626Z,8.40
2019-04-26T09:02:46.358Z,8.53
2019-04-26T09:05:33.141Z,7.83
2019-04-26T09:08:03.987Z,8.47
2019-04-26T09:10:34.480Z,8.60
2019-04-26T09:13:04.791Z,8.33
2019-04-26T09:15:45.861Z,9.13
2019-04-26T09:18:14.723Z,9.67
2019-04-26T09:20:44.326Z,8.97
2019-04-26T09:23:39.913Z,9.80
2019-04-26T09:26:02.352Z,9.33
2019-04-26T09:28:49.272Z,9.03
2019-04-26T09:31:38.126Z,8.90
2019-04-26T09:34:10.523Z,9.27
2019-04-26T09:36:38.753Z,9.07
2019-04-26T09:39:10.012Z,8.50
2019-04-26T09:41:39.608Z,9.30
2019-04-26T09:44:18.783Z,9.30
2019-04-26T09:47:14.286Z,9.97
2019-04-26T09:50:11.247Z,9.17
2019-04-26T09:52:45.460Z,9.43
2019-04-26T09:55:14.972Z,10.00
2019-04-26T09:57:44.499Z,8.97
2019-04-26T10:00:18.427Z,9.03
2019-04-26T10:02:49.479Z,9.07
2019-04-26T10:05:22.298Z,9.50
2019-04-26T10:07:50.672Z,8.80
2019-04-26T10:10:22.955Z,10.20
2019-04-26T10:12:59.534Z,10.30
2019-04-26T10:15:45.503Z,9.97
2019-04-26T10:18:20.467Z,10.87
2019-04-26T10:20:48.831Z,10.60
2019-04-26T10:23:18.564Z,11.17
2019-04-26T10:25:52.070Z,10.93
2019-04-26T10:28:19.615Z,10.97
2019-04-26T10:30:49.423Z,10.60
2019-04-26T10:33:19.260Z,10.10
2019-04-26T10:35:48.696Z,10.83
2019-04-26T10:38:19.352Z,10.47
2019-04-26T10:40:49.372Z,10.20
2019-04-26T10:43:20.105Z,10.17
2019-04-26T10:45:53.501Z,10.33
2019-04-26T10:48:23.096Z,10.60
2019-04-26T10:50:52.367Z,10.27
2019-04-26T10:53:46.640Z,10.90
2019-04-26T10:56:54.908Z,10.67
2019-04-26T10:59:46.076Z,10.30
2019-04-26T11:02:18.717Z,9.97
2019-04-26T11:04:48.341Z,10.13
2019-04-26T11:07:18.512Z,10.37
2019-04-26T11:09:48.031Z,9.63
2019-04-26T11:12:17.876Z,10.20
2019-04-26T11:14:47.318Z,9.57
2019-04-26T11:17:17.815Z,10.80
2019-04-26T11:19:47.341Z,10.80
2019-04-26T11:22:28.624Z,10.43
2019-04-26T11:24:53.423Z,10.87
2019-04-26T11:27:21.128Z,10.53
2019-04-26T11:29:53.877Z,10.23
2019-04-26T11:32:21.999Z,10.77
2019-04-26T11:34:54.515Z,9.30
2019-04-26T11:37:22.866Z,9.10
2019-04-26T11:39:54.891Z,9.87
2019-04-26T11:42:24.442Z,10.30
2019-04-26T11:45:05.735Z,9.77
2019-04-26T11:47:25.436Z,9.77
2019-04-26T11:49:55.230Z,10.23
2019-04-26T11:52:24.651Z,10.63
2019-04-26T11:54:55.328Z,9.77
2019-04-26T11:57:26.436Z,10.50
2019-04-26T11:59:55.961Z,10.83
2019-04-26T12:02:26.551Z,11.47
2019-04-26T12:05:16.550Z,10.63
2019-04-26T12:07:50.990Z,10.63
2019-04-26T12:10:20.605Z,10.70
2019-04-26T12:12:51.889Z,9.93
2019-04-26T12:15:30.215Z,9.77
2019-04-26T12:17:58.629Z,9.47
2019-04-26T12:20:26.919Z,9.60
2019-04-26T12:22:56.294Z,9.47
2019-04-26T12:25:25.884Z,10.43
2019-04-26T12:27:55.498Z,11.07
2019-04-26T12:30:26.880Z,10.47
2019-04-26T12:32:56.420Z,9.97
2019-04-26T12:35:26.047Z,9.77
2019-04-26T12:37:55.831Z,9.70
2019-04-26T12:40:25.633Z,9.90
2019-04-26T12:42:55.239Z,10.13
2019-04-26T12:45:42.530Z,10.20
2019-04-26T12:48:15.799Z,10.40
2019-04-26T12:50:45.169Z,10.60
2019-04-26T12:53:17.944Z,10.60
2019-04-26T12:55:49.252Z,10.00
2019-04-26T12:58:18.169Z,10.03
2019-04-26T13:00:54.053Z,9.33
2019-04-26T13:03:20.890Z,10.03
2019-04-26T13:05:57.602Z,10.60
2019-04-26T13:08:22.574Z,10.03
2019-04-26T13:11:20.240Z,10.37
2019-04-26T13:14:17.970Z,9.70
2019-04-26T13:16:57.144Z,10.90
2019-04-26T13:19:26.324Z,11.27
2019-04-26T13:21:55.704Z,11.57
2019-04-26T13:24:26.050Z,10.47
2019-04-26T13:26:55.453Z,11.77
2019-04-26T13:29:27.252Z,12.10
2019-04-26T13:31:56.713Z,11.43
2019-04-26T13:34:26.296Z,13.00
2019-04-26T13:36:59.189Z,13.10
2019-04-26T13:39:27.386Z,12.77
2019-04-26T13:42:04.412Z,13.13
2019-04-26T13:44:46.070Z,13.90
2019-04-26T13:47:30.594Z,13.73
2019-04-26T13:50:11.712Z,14.30
2019-04-26T13:52:41.243Z,13.10
2019-04-26T13:55:10.918Z,13.73
2019-04-26T13:57:44.637Z,12.77
2019-04-26T14:00:14.077Z,13.57
2019-04-26T14:02:44.131Z,13.40
2019-04-26T14:05:15.206Z,13.53
2019-04-26T14:07:45.946Z,13.57
2019-04-26T14:10:16.264Z,13.73
2019-04-26T14:12:46.251Z,13.27
2019-04-26T14:15:17.237Z,13.03
2019-04-26T14:17:47.282Z,12.50
2019-04-26T14:20:19.168Z,12.57
2019-04-26T14:23:00.627Z,12.13
2019-04-26T14:25:37.358Z,11.17
2019-04-26T14:28:06.824Z,12.33
2019-04-26T14:30:37.366Z,11.77
2019-04-26T14:33:08.312Z,11.20
2019-04-26T14:35:38.314Z,9.87
2019-04-26T14:38:07.832Z,8.97
2019-04-26T14:40:39.258Z,8.93
2019-04-26T14:43:09.210Z,7.67
2019-04-26T14:45:39.916Z,7.87
2019-04-26T14:48:20.697Z,8.83
2019-04-26T14:50:42.025Z,7.47
2019-04-26T14:53:11.488Z,7.13
2019-04-26T14:55:41.083Z,6.40
2019-04-26T14:58:12.262Z,5.73
2019-04-26T15:00:43.909Z,5.67
2019-04-26T15:03:26.514Z,5.15
2019-04-26T15:06:16.861Z,5.60
2019-04-26T15:08:48.661Z,4.60
2019-04-26T15:11:18.522Z,4.80
2019-04-26T15:13:48.051Z,5.80
2019-04-26T15:16:18.395Z,5.33
2019-04-26T15:18:49.779Z,5.30
2019-04-26T15:21:19.745Z,4.73
2019-04-26T15:23:49.337Z,5.23
2019-04-26T15:26:24.315Z,4.77
2019-04-26T15:28:51.613Z,4.83
2019-04-26T15:31:24.744Z,5.13
2019-04-26T15:33:53.062Z,4.67
2019-04-26T15:36:23.337Z,4.60
2019-04-26T15:38:53.474Z,4.60
2019-04-26T15:41:35.808Z,4.37
2019-04-26T15:44:28.087Z,4.50
2019-04-26T15:47:18.503Z,4.60
2019-04-26T15:49:53.485Z,4.60
2019-04-26T15:52:23.495Z,4.93
2019-04-26T15:54:58.980Z,4.87
2019-04-26T15:57:31.118Z,4.12
2019-04-26T15:59:58.242Z,4.60
2019-04-26T16:02:29.192Z,5.13
2019-04-26T16:04:59.073Z,4.53
2019-04-26T16:07:29.265Z,5.00
2019-04-26T16:09:59.417Z,4.93
2019-04-26T16:12:29.537Z,5.33
2019-04-26T16:14:59.234Z,5.30
2019-04-26T16:17:28.809Z,5.47
2019-04-26T16:20:00.058Z,4.73
2019-04-26T16:22:33.160Z,6.00
2019-04-26T16:25:05.256Z,5.00
2019-04-26T16:27:35.161Z,4.97
2019-04-26T16:30:28.418Z,5.10
2019-04-26T16:33:15.572Z,4.83
2019-04-26T16:35:45.822Z,5.07
2019-04-26T16:38:35.404Z,4.80
2019-04-26T16:41:06.590Z,5.17
2019-04-26T16:43:40.515Z,4.83
2019-04-26T16:46:14.754Z,4.90
2019-04-26T16:48:44.212Z,5.00
2019-04-26T16:51:14.455Z,5.60
2019-04-26T16:54:02.947Z,6.53
2019-04-26T16:56:16.094Z,5.00
2019-04-26T16:58:46.097Z,5.33
2019-04-26T17:01:15.591Z,5.60
2019-04-26T17:03:48.122Z,4.40
2019-04-26T17:06:17.245Z,5.67
2019-04-26T17:08:49.306Z,5.60
2019-04-26T17:11:19.163Z,5.77
2019-04-26T17:13:53.320Z,5.63
2019-04-26T17:16:21.967Z,5.50
2019-04-26T17:18:51.754Z,5.53
2019-04-26T17:21:25.649Z,5.97
2019-04-26T17:24:05.909Z,4.93
2019-04-26T17:26:39.243Z,6.00
2019-04-26T17:29:09.919Z,5.40
2019-04-26T17:31:43.137Z,8.57
2019-04-26T17:34:13.883Z,5.80
2019-04-26T17:36:46.365Z,5.47
2019-04-26T17:39:17.214Z,5.30
2019-04-26T17:41:50.767Z,6.00
2019-04-26T17:44:26.085Z,5.90
2019-04-26T17:46:56.138Z,6.07
2019-04-26T17:49:27.122Z,5.95
2019-04-26T17:51:57.820Z,5.60
2019-04-26T17:54:44.202Z,5.03
2019-04-26T17:56:59.569Z,5.87
2019-04-26T17:59:33.905Z,5.80
2019-04-26T18:02:01.365Z,3.57
2019-04-26T18:04:36.611Z,3.50
2019-04-26T18:07:13.720Z,5.17
2019-04-26T18:09:44.061Z,8.90
2019-04-26T18:12:06.902Z,32.83
2019-04-26T18:14:36.962Z,11.10
2019-04-26T18:17:15.390Z,13.60
2019-04-26T18:20:05.096Z,31.93
2019-04-26T18:22:43.664Z,29.87
2019-04-26T18:25:14.680Z,23.97
2019-04-26T18:27:44.789Z,25.80
2019-04-26T18:30:14.896Z,26.83
2019-04-26T18:32:47.727Z,26.10
2019-04-26T18:35:16.986Z,9.13
2019-04-26T18:37:47.235Z,6.93
2019-04-26T18:40:20.285Z,6.93
2019-04-26T18:42:48.916Z,6.07
2019-04-26T18:45:25.928Z,6.00
2019-04-26T18:47:50.271Z,5.43
2019-04-26T18:50:20.674Z,5.77
2019-04-26T18:53:03.215Z,5.23
2019-04-26T18:55:34.415Z,4.80
2019-04-26T18:58:05.538Z,6.40
2019-04-26T19:00:38.591Z,6.47
2019-04-26T19:03:08.820Z,6.30
2019-04-26T19:05:39.502Z,6.87
2019-04-26T19:08:09.939Z,6.17
2019-04-26T19:10:40.288Z,6.47
2019-04-26T19:13:22.818Z,6.00
2019-04-26T19:16:06.275Z,6.13
2019-04-26T19:18:55.405Z,6.50
2019-04-26T19:21:47.277Z,6.87
2019-04-26T19:24:19.812Z,6.90
2019-04-26T19:26:50.019Z,6.97
2019-04-26T19:29:29.140Z,6.97
2019-04-26T19:31:52.413Z,6.60
2019-04-26T19:34:26.018Z,6.87
2019-04-26T19:36:56.371Z,7.17
2019-04-26T19:39:32.050Z,6.97
2019-04-26T19:41:58.720Z,7.23
2019-04-26T19:44:28.527Z,6.70
2019-04-26T19:47:12.741Z,7.20
2019-04-26T19:50:03.118Z,6.93
2019-04-26T19:52:42.895Z,7.50
2019-04-26T19:55:31.913Z,7.67
2019-04-26T19:58:09.693Z,8.00
2019-04-26T20:00:43.390Z,7.30
2019-04-26T20:03:13.394Z,7.70
2019-04-26T20:05:44.159Z,7.20
2019-04-26T20:08:13.740Z,7.13
2019-04-26T20:10:45.841Z,6.83
2019-04-26T20:13:16.710Z,7.33
2019-04-26T20:15:47.145Z,6.63
2019-04-26T20:18:17.618Z,7.40
2019-04-26T20:20:48.039Z,7.33
2019-04-26T20:23:19.515Z,7.70
2019-04-26T20:25:52.762Z,7.80
2019-04-26T20:28:22.799Z,8.40
2019-04-26T20:31:27.097Z,9.40
2019-04-26T20:33:57.338Z,8.80
2019-04-26T20:36:28.224Z,8.17
2019-04-26T20:38:58.015Z,7.80
2019-04-26T20:41:27.899Z,8.10
2019-04-26T20:44:07.018Z,8.20
2019-04-26T20:46:33.618Z,7.90
2019-04-26T20:49:07.831Z,7.73
2019-04-26T20:51:33.311Z,8.13
2019-04-26T20:54:03.880Z,7.67
2019-04-26T20:56:33.816Z,7.90
2019-04-26T20:59:03.576Z,7.93
2019-04-26T21:01:33.284Z,7.77
2019-04-26T21:04:03.037Z,8.17
2019-04-26T21:06:33.889Z,8.33
2019-04-26T21:09:06.433Z,8.10
2019-04-26T21:11:38.183Z,7.97
2019-04-26T21:14:08.728Z,8.60
2019-04-26T21:16:38.632Z,7.47
2019-04-26T21:19:12.291Z,7.57
2019-04-26T21:21:41.967Z,7.73
2019-04-26T21:24:13.348Z,8.77
2019-04-26T21:27:01.692Z,8.87
2019-04-26T21:29:59.033Z,9.50
2019-04-26T21:32:44.228Z,9.13
2019-04-26T21:35:16.168Z,9.10
2019-04-26T21:37:53.969Z,8.73
2019-04-26T21:40:26.368Z,9.37
2019-04-26T21:42:59.550Z,9.50
2019-04-26T21:45:30.940Z,8.35
2019-04-26T21:48:02.545Z,8.97
2019-04-26T21:50:35.763Z,8.67
2019-04-26T21:53:06.852Z,8.20
2019-04-26T21:55:38.617Z,9.50
2019-04-26T21:58:06.626Z,9.30
2019-04-26T22:01:03.848Z,8.70
2019-04-26T22:03:34.668Z,9.30
2019-04-26T22:06:07.150Z,9.07
2019-04-26T22:08:43.599Z,9.10
2019-04-26T22:11:19.746Z,9.23
2019-04-26T22:13:51.637Z,10.07
2019-04-26T22:16:42.328Z,10.43
2019-04-26T22:19:39.476Z,11.20
2019-04-26T22:22:30.556Z,11.33
2019-04-26T22:24:59.848Z,11.53
2019-04-26T22:27:28.984Z,10.20
2019-04-26T22:29:58.470Z,11.17
2019-04-26T22:32:27.696Z,11.77
2019-04-26T22:34:56.888Z,11.83
2019-04-26T22:37:30.058Z,12.23
2019-04-26T22:39:56.716Z,11.90
2019-04-26T22:42:26.269Z,12.57
2019-04-26T22:45:09.241Z,12.80
2019-04-26T22:47:56.128Z,12.67
2019-04-26T22:50:33.576Z,11.70
2019-04-26T22:53:04.040Z,12.70
2019-04-26T22:55:33.329Z,12.07
2019-04-26T22:58:03.396Z,13.10
2019-04-26T23:00:40.948Z,12.93
2019-04-26T23:03:10.284Z,13.10
2019-04-26T23:05:39.326Z,13.10
2019-04-26T23:08:09.562Z,13.27
2019-04-26T23:10:44.879Z,13.70
2019-04-26T23:13:37.801Z,13.93
2019-04-26T23:16:15.600Z,14.03
2019-04-26T23:19:06.409Z,14.20
2019-04-26T23:21:44.249Z,13.67
2019-04-26T23:24:17.532Z,13.33
2019-04-26T23:26:45.147Z,12.80
2019-04-26T23:29:17.471Z,13.20
2019-04-26T23:31:44.731Z,13.70
2019-04-26T23:34:14.340Z,13.23
2019-04-26T23:36:43.733Z,14.23
2019-04-26T23:39:13.328Z,13.77
2019-04-26T23:41:44.488Z,13.03
2019-04-26T23:44:13.352Z,13.40
2019-04-26T23:46:43.455Z,13.37
2019-04-26T23:49:14.355Z,12.20
2019-04-26T23:51:45.823Z,13.30
2019-04-26T23:54:14.233Z,12.70
2019-04-26T23:56:43.879Z,12.27
2019-04-26T23:59:16.487Z,12.40
